sensor_id;sensor_type;location;lat;lon;timestamp;pressure;altitude;pressure_sealevel;temperature;humidity
2268;BME280;11052;43.338;25.502;2022-12-18T00:02:22;101564.75;;;6.76;100.00
2268;BME280;11052;43.338;25.502;2022-12-18T00:04:49;101563.84;;;6.71;100.00
2268;BME280;11052;43.338;25.502;2022-12-18T00:07:18;101559.63;;;6.81;100.00
2268;BME280;11052;43.338;25.502;2022-12-18T00:09:45;101559.53;;;6.69;100.00
2268;BME280;11052;43.338;25.502;2022-12-18T00:12:12;101578.47;;;6.74;100.00
2268;BME280;11052;43.338;25.502;2022-12-18T00:14:39;101574.19;;;6.76;100.00
2268;BME280;11052;43.338;25.502;2022-12-18T00:17:09;101570.75;;;6.74;100.00
2268;BME280;11052;43.338;25.502;2022-12-18T00:19:36;101590.53;;;6.78;100.00
2268;BME280;11052;43.338;25.502;2022-12-18T00:22:04;101593.13;;;6.82;100.00
2268;BME280;11052;43.338;25.502;2022-12-18T00:24:33;101590.56;;;6.82;100.00
2268;BME280;11052;43.338;25.502;2022-12-18T00:27:00;101598.31;;;6.87;100.00
2268;BME280;11052;43.338;25.502;2022-12-18T00:29:27;101600.06;;;6.93;100.00
2268;BME280;11052;43.338;25.502;2022-12-18T00:31:54;101602.59;;;6.83;100.00
2268;BME280;11052;43.338;25.502;2022-12-18T00:34:21;101612.03;;;6.84;100.00
2268;BME280;11052;43.338;25.502;2022-12-18T00:36:48;101621.56;;;7.02;100.00
2268;BME280;11052;43.338;25.502;2022-12-18T00:39:16;101623.25;;;6.97;100.00
2268;BME280;11052;43.338;25.502;2022-12-18T00:41:44;101623.25;;;6.99;100.00
2268;BME280;11052;43.338;25.502;2022-12-18T00:44:28;101620.66;;;6.96;100.00
2268;BME280;11052;43.338;25.502;2022-12-18T00:46:55;101620.72;;;7.03;100.00
2268;BME280;11052;43.338;25.502;2022-12-18T00:49:23;101618.13;;;7.00;100.00
2268;BME280;11052;43.338;25.502;2022-12-18T00:51:50;101617.28;;;7.04;100.00
2268;BME280;11052;43.338;25.502;2022-12-18T00:54:17;101614.69;;;7.00;100.00
2268;BME280;11052;43.338;25.502;2022-12-18T00:56:46;101608.66;;;6.96;100.00
2268;BME280;11052;43.338;25.502;2022-12-18T00:59:13;101618.94;;;6.96;100.00
2268;BME280;11052;43.338;25.502;2022-12-18T01:01:40;101617.22;;;6.87;100.00
2268;BME280;11052;43.338;25.502;2022-12-18T01:04:08;101624.09;;;6.95;100.00
2268;BME280;11052;43.338;25.502;2022-12-18T01:06:35;101630.09;;;6.89;100.00
2268;BME280;11052;43.338;25.502;2022-12-18T01:09:03;101629.25;;;6.88;100.00
2268;BME280;11052;43.338;25.502;2022-12-18T01:11:30;101633.50;;;6.80;100.00
2268;BME280;11052;43.338;25.502;2022-12-18T01:13:59;101638.72;;;6.89;100.00
2268;BME280;11052;43.338;25.502;2022-12-18T01:16:28;101638.69;;;6.88;100.00
2268;BME280;11052;43.338;25.502;2022-12-18T01:18:55;101644.72;;;6.88;100.00
2268;BME280;11052;43.338;25.502;2022-12-18T01:21:23;101652.44;;;6.95;100.00
2268;BME280;11052;43.338;25.502;2022-12-18T01:23:54;101650.72;;;6.89;100.00
2268;BME280;11052;43.338;25.502;2022-12-18T01:26:22;101660.16;;;6.85;100.00
2268;BME280;11052;43.338;25.502;2022-12-18T01:28:50;101657.63;;;6.92;100.00
2268;BME280;11052;43.338;25.502;2022-12-18T01:31:20;101657.63;;;6.92;100.00
2268;BME280;11052;43.338;25.502;2022-12-18T01:33:48;101661.13;;;7.06;100.00
2268;BME280;11052;43.338;25.502;2022-12-18T01:36:17;101662.78;;;6.93;100.00
2268;BME280;11052;43.338;25.502;2022-12-18T01:38:45;101657.59;;;6.95;100.00
2268;BME280;11052;43.338;25.502;2022-12-18T01:41:13;101668.78;;;6.92;100.00
2268;BME280;11052;43.338;25.502;2022-12-18T01:43:42;101682.50;;;6.86;100.00
2268;BME280;11052;43.338;25.502;2022-12-18T01:46:10;101692.88;;;6.99;100.00
2268;BME280;11052;43.338;25.502;2022-12-18T01:48:40;101692.84;;;6.96;100.00
2268;BME280;11052;43.338;25.502;2022-12-18T01:51:10;101694.63;;;7.03;100.00
2268;BME280;11052;43.338;25.502;2022-12-18T01:53:39;101692.00;;;6.97;100.00
2268;BME280;11052;43.338;25.502;2022-12-18T01:56:07;101697.13;;;6.95;100.00
2268;BME280;11052;43.338;25.502;2022-12-18T01:58:41;101697.13;;;6.90;100.00
2268;BME280;11052;43.338;25.502;2022-12-18T02:01:09;101704.91;;;6.98;100.00
2268;BME280;11052;43.338;25.502;2022-12-18T02:03:36;101708.25;;;6.85;100.00
2268;BME280;11052;43.338;25.502;2022-12-18T02:06:10;101710.00;;;6.89;100.00
2268;BME280;11052;43.338;25.502;2022-12-18T02:08:46;101714.34;;;6.96;100.00
2268;BME280;11052;43.338;25.502;2022-12-18T02:11:20;101720.31;;;6.89;100.00
2268;BME280;11052;43.338;25.502;2022-12-18T02:13:54;101719.44;;;6.85;100.00
2268;BME280;11052;43.338;25.502;2022-12-18T02:16:31;101718.56;;;6.85;100.00
2268;BME280;11052;43.338;25.502;2022-12-18T02:19:06;101730.63;;;6.87;100.00
2268;BME280;11052;43.338;25.502;2022-12-18T02:21:45;101732.38;;;6.95;100.00
2268;BME280;11052;43.338;25.502;2022-12-18T02:24:22;101734.97;;;6.99;100.00
2268;BME280;11052;43.338;25.502;2022-12-18T02:26:55;101730.66;;;6.90;100.00
2268;BME280;11052;43.338;25.502;2022-12-18T02:29:26;101728.91;;;6.89;100.00
2268;BME280;11052;43.338;25.502;2022-12-18T02:31:57;101724.63;;;6.92;100.00
2268;BME280;11052;43.338;25.502;2022-12-18T02:34:30;101729.78;;;6.95;100.00
2268;BME280;11052;43.338;25.502;2022-12-18T02:37:00;101727.22;;;6.95;100.00
2268;BME280;11052;43.338;25.502;2022-12-18T02:39:29;101740.09;;;6.92;100.00
2268;BME280;11052;43.338;25.502;2022-12-18T02:41:59;101738.38;;;6.90;100.00
2268;BME280;11052;43.338;25.502;2022-12-18T02:44:33;101739.19;;;6.83;100.00
2268;BME280;11052;43.338;25.502;2022-12-18T02:47:01;101744.38;;;6.88;100.00
2268;BME280;11052;43.338;25.502;2022-12-18T02:49:36;101740.91;;;6.84;100.00
2268;BME280;11052;43.338;25.502;2022-12-18T02:52:14;101744.25;;;6.73;100.00
2268;BME280;11052;43.338;25.502;2022-12-18T02:54:57;101747.69;;;6.75;100.00
2268;BME280;11052;43.338;25.502;2022-12-18T02:57:34;101741.59;;;6.67;100.00
2268;BME280;11052;43.338;25.502;2022-12-18T03:00:07;101742.50;;;6.70;100.00
2268;BME280;11052;43.338;25.502;2022-12-18T03:02:39;101742.47;;;6.67;100.00
2268;BME280;11052;43.338;25.502;2022-12-18T03:05:14;101754.44;;;6.62;100.00
2268;BME280;11052;43.338;25.502;2022-12-18T03:07:46;101762.16;;;6.61;100.00
2268;BME280;11052;43.338;25.502;2022-12-18T03:10:19;101754.50;;;6.67;100.00
2268;BME280;11052;43.338;25.502;2022-12-18T03:12:53;101757.88;;;6.61;100.00
2268;BME280;11052;43.338;25.502;2022-12-18T03:15:26;101767.31;;;6.61;100.00
2268;BME280;11052;43.338;25.502;2022-12-18T03:17:59;101771.63;;;6.63;100.00
2268;BME280;11052;43.338;25.502;2022-12-18T03:20:31;101774.16;;;6.58;100.00
2268;BME280;11052;43.338;25.502;2022-12-18T03:23:02;101769.84;;;6.56;100.00
2268;BME280;11052;43.338;25.502;2022-12-18T03:25:33;101781.84;;;6.55;100.00
2268;BME280;11052;43.338;25.502;2022-12-18T03:28:07;101778.44;;;6.58;100.00
2268;BME280;11052;43.338;25.502;2022-12-18T03:30:37;101779.34;;;6.62;100.00
2268;BME280;11052;43.338;25.502;2022-12-18T03:33:10;101792.00;;;6.40;100.00
2268;BME280;11052;43.338;25.502;2022-12-18T03:35:40;101796.41;;;6.52;100.00
2268;BME280;11052;43.338;25.502;2022-12-18T03:38:09;101788.63;;;6.46;100.00
2268;BME280;11052;43.338;25.502;2022-12-18T03:40:43;101801.59;;;6.55;100.00
2268;BME280;11052;43.338;25.502;2022-12-18T03:43:19;101810.16;;;6.52;100.00
2268;BME280;11052;43.338;25.502;2022-12-18T03:45:51;101815.28;;;6.51;100.00
2268;BME280;11052;43.338;25.502;2022-12-18T03:48:27;101820.34;;;6.42;100.00
2268;BME280;11052;43.338;25.502;2022-12-18T03:50:57;101822.19;;;6.52;100.00
2268;BME280;11052;43.338;25.502;2022-12-18T03:53:34;101837.56;;;6.46;100.00
2268;BME280;11052;43.338;25.502;2022-12-18T03:56:04;101830.63;;;6.40;100.00
2268;BME280;11052;43.338;25.502;2022-12-18T03:58:35;101836.81;;;6.56;100.00
2268;BME280;11052;43.338;25.502;2022-12-18T04:01:05;101831.44;;;6.36;100.00
2268;BME280;11052;43.338;25.502;2022-12-18T04:03:35;101843.50;;;6.39;100.00
2268;BME280;11052;43.338;25.502;2022-12-18T04:06:05;101852.22;;;6.50;100.00
2268;BME280;11052;43.338;25.502;2022-12-18T04:08:34;101858.13;;;6.43;100.00
2268;BME280;11052;43.338;25.502;2022-12-18T04:11:01;101850.34;;;6.38;100.00
2268;BME280;11052;43.338;25.502;2022-12-18T04:13:32;101854.53;;;6.29;100.00
2268;BME280;11052;43.338;25.502;2022-12-18T04:16:01;101858.06;;;6.38;100.00
2268;BME280;11052;43.338;25.502;2022-12-18T04:18:28;101870.81;;;6.26;100.00
2268;BME280;11052;43.338;25.502;2022-12-18T04:20:56;101874.16;;;6.20;100.00
2268;BME280;11052;43.338;25.502;2022-12-18T04:23:23;101877.63;;;6.24;100.00
2268;BME280;11052;43.338;25.502;2022-12-18T04:25:50;101875.91;;;6.23;100.00
2268;BME280;11052;43.338;25.502;2022-12-18T04:28:17;101875.84;;;6.18;100.00
2268;BME280;11052;43.338;25.502;2022-12-18T04:30:44;101882.72;;;6.19;100.00
2268;BME280;11052;43.338;25.502;2022-12-18T04:33:16;101881.94;;;6.25;100.00
2268;BME280;11052;43.338;25.502;2022-12-18T04:35:43;101887.09;;;6.25;100.00
2268;BME280;11052;43.338;25.502;2022-12-18T04:38:10;101887.84;;;6.18;100.00
2268;BME280;11052;43.338;25.502;2022-12-18T04:40:37;101892.25;;;6.25;100.00
2268;BME280;11052;43.338;25.502;2022-12-18T04:43:05;101892.22;;;6.23;100.00
2268;BME280;11052;43.338;25.502;2022-12-18T04:45:32;101893.13;;;6.27;100.00
2268;BME280;11052;43.338;25.502;2022-12-18T04:47:59;101902.53;;;6.25;100.00
2268;BME280;11052;43.338;25.502;2022-12-18T04:50:28;101897.44;;;6.28;100.00
2268;BME280;11052;43.338;25.502;2022-12-18T04:52:56;101902.56;;;6.27;100.00
2268;BME280;11052;43.338;25.502;2022-12-18T04:55:23;101917.97;;;6.23;100.00
2268;BME280;11052;43.338;25.502;2022-12-18T04:57:53;101910.38;;;6.33;100.00
2268;BME280;11052;43.338;25.502;2022-12-18T05:00:20;101913.63;;;6.19;100.00
2268;BME280;11052;43.338;25.502;2022-12-18T05:02:48;101919.63;;;6.20;100.00
2268;BME280;11052;43.338;25.502;2022-12-18T05:05:15;101927.44;;;6.24;100.00
2268;BME280;11052;43.338;25.502;2022-12-18T05:07:43;101926.50;;;6.19;100.00
2268;BME280;11052;43.338;25.502;2022-12-18T05:10:11;101928.34;;;6.30;100.00
2268;BME280;11052;43.338;25.502;2022-12-18T05:12:38;101929.25;;;6.33;100.00
2268;BME280;11052;43.338;25.502;2022-12-18T05:15:24;101941.28;;;6.33;100.00
2268;BME280;11052;43.338;25.502;2022-12-18T05:17:51;101951.56;;;6.33;100.00
2268;BME280;11052;43.338;25.502;2022-12-18T05:20:18;101955.00;;;6.33;100.00
2268;BME280;11052;43.338;25.502;2022-12-18T05:22:47;101961.78;;;6.27;100.00
2268;BME280;11052;43.338;25.502;2022-12-18T05:25:14;101960.78;;;6.17;100.00
2268;BME280;11052;43.338;25.502;2022-12-18T05:27:41;101969.50;;;6.25;100.00
2268;BME280;11052;43.338;25.502;2022-12-18T05:30:10;101972.84;;;6.19;100.00
2268;BME280;11052;43.338;25.502;2022-12-18T05:32:38;101984.84;;;6.19;100.00
2268;BME280;11052;43.338;25.502;2022-12-18T05:35:06;101976.22;;;6.15;100.00
2268;BME280;11052;43.338;25.502;2022-12-18T05:37:34;101983.09;;;6.16;100.00
2268;BME280;11052;43.338;25.502;2022-12-18T05:40:04;101978.72;;;6.11;100.00
2268;BME280;11052;43.338;25.502;2022-12-18T05:42:31;101985.50;;;6.04;100.00
2268;BME280;11052;43.338;25.502;2022-12-18T05:44:58;102000.13;;;6.05;100.00
2268;BME280;11052;43.338;25.502;2022-12-18T05:47:26;102000.03;;;6.01;100.00
2268;BME280;11052;43.338;25.502;2022-12-18T05:49:53;102005.16;;;5.99;100.00
2268;BME280;11052;43.338;25.502;2022-12-18T05:52:20;101997.31;;;5.91;100.00
2268;BME280;11052;43.338;25.502;2022-12-18T05:54:48;102006.72;;;5.89;100.00
2268;BME280;11052;43.338;25.502;2022-12-18T05:57:16;102011.97;;;5.96;100.00
2268;BME280;11052;43.338;25.502;2022-12-18T05:59:43;102017.16;;;5.97;100.00
2268;BME280;11052;43.338;25.502;2022-12-18T06:02:10;102012.91;;;6.01;100.00
2268;BME280;11052;43.338;25.502;2022-12-18T06:04:38;102016.34;;;6.01;100.00
2268;BME280;11052;43.338;25.502;2022-12-18T06:07:05;102013.84;;;6.06;100.00
2268;BME280;11052;43.338;25.502;2022-12-18T06:09:32;102011.25;;;6.04;100.00
2268;BME280;11052;43.338;25.502;2022-12-18T06:11:59;102021.53;;;6.03;100.00
2268;BME280;11052;43.338;25.502;2022-12-18T06:14:28;102024.00;;;5.97;100.00
2268;BME280;11052;43.338;25.502;2022-12-18T06:16:55;102026.50;;;5.92;100.00
2268;BME280;11052;43.338;25.502;2022-12-18T06:19:22;102029.22;;;6.01;100.00
2268;BME280;11052;43.338;25.502;2022-12-18T06:21:49;102026.63;;;6.00;100.00
2268;BME280;11052;43.338;25.502;2022-12-18T06:24:16;102023.25;;;6.04;100.00
2268;BME280;11052;43.338;25.502;2022-12-18T06:26:43;102031.88;;;6.07;100.00
2268;BME280;11052;43.338;25.502;2022-12-18T06:29:11;102040.47;;;6.08;100.00
2268;BME280;11052;43.338;25.502;2022-12-18T06:31:39;102042.31;;;6.16;100.00
2268;BME280;11052;43.338;25.502;2022-12-18T06:34:06;102051.53;;;6.01;100.00
2268;BME280;11052;43.338;25.502;2022-12-18T06:36:34;102054.19;;;6.08;100.00
2268;BME280;11052;43.338;25.502;2022-12-18T06:39:01;102059.31;;;6.04;100.00
2268;BME280;11052;43.338;25.502;2022-12-18T06:41:28;102080.81;;;6.09;100.00
2268;BME280;11052;43.338;25.502;2022-12-18T06:43:55;102079.94;;;6.08;100.00
2268;BME280;11052;43.338;25.502;2022-12-18T06:46:24;102080.03;;;6.14;100.00
2268;BME280;11052;43.338;25.502;2022-12-18T06:48:52;102088.66;;;6.16;100.00
2268;BME280;11052;43.338;25.502;2022-12-18T06:51:20;102093.72;;;6.12;100.00
2268;BME280;11052;43.338;25.502;2022-12-18T06:53:47;102093.03;;;6.20;100.00
2268;BME280;11052;43.338;25.502;2022-12-18T06:56:15;102095.56;;;6.19;100.00
2268;BME280;11052;43.338;25.502;2022-12-18T06:58:42;102106.72;;;6.18;100.00
2268;BME280;11052;43.338;25.502;2022-12-18T07:01:11;102107.63;;;6.21;100.00
2268;BME280;11052;43.338;25.502;2022-12-18T07:03:39;102113.66;;;6.22;100.00
2268;BME280;11052;43.338;25.502;2022-12-18T07:06:13;102114.53;;;6.24;100.00
2268;BME280;11052;43.338;25.502;2022-12-18T07:08:40;102117.78;;;6.12;100.00
2268;BME280;11052;43.338;25.502;2022-12-18T07:11:08;102111.84;;;6.16;100.00
2268;BME280;11052;43.338;25.502;2022-12-18T07:13:35;102118.78;;;6.20;100.00
2268;BME280;11052;43.338;25.502;2022-12-18T07:16:07;102130.84;;;6.24;100.00
2268;BME280;11052;43.338;25.502;2022-12-18T07:18:35;102125.72;;;6.24;100.00
2268;BME280;11052;43.338;25.502;2022-12-18T07:21:03;102127.59;;;6.35;100.00
2268;BME280;11052;43.338;25.502;2022-12-18T07:23:34;102129.41;;;6.40;100.00
2268;BME280;11052;43.338;25.502;2022-12-18T07:26:02;102129.50;;;6.46;100.00
2268;BME280;11052;43.338;25.502;2022-12-18T07:28:31;102121.78;;;6.46;100.00
2268;BME280;11052;43.338;25.502;2022-12-18T07:31:01;102141.78;;;6.61;100.00
2268;BME280;11052;43.338;25.502;2022-12-18T07:33:28;102141.69;;;6.56;100.00
2268;BME280;11052;43.338;25.502;2022-12-18T07:35:56;102151.91;;;6.50;100.00
2268;BME280;11052;43.338;25.502;2022-12-18T07:38:23;102152.66;;;6.45;100.00
2268;BME280;11052;43.338;25.502;2022-12-18T07:40:51;102157.69;;;6.37;100.00
2268;BME280;11052;43.338;25.502;2022-12-18T07:43:18;102161.19;;;6.41;100.00
2268;BME280;11052;43.338;25.502;2022-12-18T07:45:49;102160.84;;;6.22;100.00
2268;BME280;11052;43.338;25.502;2022-12-18T07:48:16;102167.75;;;6.23;100.00
2268;BME280;11052;43.338;25.502;2022-12-18T07:50:43;102167.81;;;6.28;100.00
2268;BME280;11052;43.338;25.502;2022-12-18T07:53:10;102172.13;;;6.29;100.00
2268;BME280;11052;43.338;25.502;2022-12-18T07:55:37;102176.53;;;6.35;100.00
2268;BME280;11052;43.338;25.502;2022-12-18T07:58:06;102172.19;;;6.32;100.00
2268;BME280;11052;43.338;25.502;2022-12-18T08:00:33;102178.16;;;6.30;100.00
2268;BME280;11052;43.338;25.502;2022-12-18T08:03:01;102177.47;;;6.40;100.00
2268;BME280;11052;43.338;25.502;2022-12-18T08:05:28;102183.44;;;6.37;100.00
2268;BME280;11052;43.338;25.502;2022-12-18T08:07:55;102185.22;;;6.40;100.00
2268;BME280;11052;43.338;25.502;2022-12-18T08:10:22;102187.88;;;6.46;100.00
2268;BME280;11052;43.338;25.502;2022-12-18T08:12:50;102182.72;;;6.46;100.00
2268;BME280;11052;43.338;25.502;2022-12-18T08:15:19;102185.41;;;6.52;100.00
2268;BME280;11052;43.338;25.502;2022-12-18T08:17:46;102188.03;;;6.53;100.00
2268;BME280;11052;43.338;25.502;2022-12-18T08:20:13;102195.84;;;6.60;100.00
2268;BME280;11052;43.338;25.502;2022-12-18T08:22:41;102205.31;;;6.61;100.00
2268;BME280;11052;43.338;25.502;2022-12-18T08:25:08;102196.63;;;6.55;100.00
2268;BME280;11052;43.338;25.502;2022-12-18T08:27:36;102196.75;;;6.62;100.00
2268;BME280;11052;43.338;25.502;2022-12-18T08:30:04;102196.78;;;6.63;100.00
2268;BME280;11052;43.338;25.502;2022-12-18T08:32:32;102192.41;;;6.59;100.00
2268;BME280;11052;43.338;25.502;2022-12-18T08:35:00;102193.47;;;6.72;100.00
2268;BME280;11052;43.338;25.502;2022-12-18T08:37:27;102202.28;;;6.84;100.00
2268;BME280;11052;43.338;25.502;2022-12-18T08:39:54;102199.53;;;6.74;100.00
2268;BME280;11052;43.338;25.502;2022-12-18T08:42:21;102204.66;;;6.72;100.00
2268;BME280;11052;43.338;25.502;2022-12-18T08:45:06;102197.16;;;6.87;100.00
2268;BME280;11052;43.338;25.502;2022-12-18T08:47:35;102198.06;;;6.89;100.00
2268;BME280;11052;43.338;25.502;2022-12-18T08:50:02;102202.28;;;6.84;100.00
2268;BME280;11052;43.338;25.502;2022-12-18T08:52:31;102191.25;;;6.93;100.00
2268;BME280;11052;43.338;25.502;2022-12-18T08:54:58;102189.38;;;6.84;100.00
2268;BME280;11052;43.338;25.502;2022-12-18T08:57:25;102182.69;;;6.99;100.00
2268;BME280;11052;43.338;25.502;2022-12-18T08:59:53;102183.47;;;6.90;100.00
2268;BME280;11052;43.338;25.502;2022-12-18T09:02:20;102187.78;;;6.94;100.00
2268;BME280;11052;43.338;25.502;2022-12-18T09:04:48;102186.94;;;6.95;100.00
2268;BME280;11052;43.338;25.502;2022-12-18T09:07:16;102182.69;;;6.99;100.00
2268;BME280;11052;43.338;25.502;2022-12-18T09:09:43;102188.75;;;7.01;100.00
2268;BME280;11052;43.338;25.502;2022-12-18T09:12:10;102182.78;;;7.05;100.00
2268;BME280;11052;43.338;25.502;2022-12-18T09:14:37;102176.81;;;7.07;100.00
2268;BME280;11052;43.338;25.502;2022-12-18T09:17:04;102165.75;;;7.14;100.00
2268;BME280;11052;43.338;25.502;2022-12-18T09:19:31;102164.03;;;7.15;100.00
2268;BME280;11052;43.338;25.502;2022-12-18T09:22:00;102177.94;;;7.26;100.00
2268;BME280;11052;43.338;25.502;2022-12-18T09:24:27;102161.69;;;7.33;100.00
2268;BME280;11052;43.338;25.502;2022-12-18T09:26:54;102155.78;;;7.40;100.00
2268;BME280;11052;43.338;25.502;2022-12-18T09:29:21;102165.06;;;7.28;100.00
2268;BME280;11052;43.338;25.502;2022-12-18T09:31:49;102164.19;;;7.26;100.00
2268;BME280;11052;43.338;25.502;2022-12-18T09:34:16;102159.88;;;7.24;100.00
2268;BME280;11052;43.338;25.502;2022-12-18T09:36:43;102164.25;;;7.30;100.00
2268;BME280;11052;43.338;25.502;2022-12-18T09:39:11;102168.50;;;7.28;100.00
2268;BME280;11052;43.338;25.502;2022-12-18T09:41:47;102160.81;;;7.31;100.00
2268;BME280;11052;43.338;25.502;2022-12-18T09:44:23;102158.19;;;7.27;100.00
2268;BME280;11052;43.338;25.502;2022-12-18T09:46:58;102154.03;;;7.38;100.00
2268;BME280;11052;43.338;25.502;2022-12-18T09:49:30;102163.50;;;7.39;100.00
2268;BME280;11052;43.338;25.502;2022-12-18T09:52:03;102167.03;;;7.47;100.00
2268;BME280;11052;43.338;25.502;2022-12-18T09:54:36;102173.13;;;7.52;100.00
2268;BME280;11052;43.338;25.502;2022-12-18T09:57:14;102169.56;;;7.42;100.00
2268;BME280;11052;43.338;25.502;2022-12-18T09:59:45;102168.03;;;7.56;100.00
2268;BME280;11052;43.338;25.502;2022-12-18T10:02:15;102166.34;;;7.59;100.00
2268;BME280;11052;43.338;25.502;2022-12-18T10:04:43;102174.91;;;7.56;100.00
2268;BME280;11052;43.338;25.502;2022-12-18T10:07:16;102171.53;;;7.62;100.00
2268;BME280;11052;43.338;25.502;2022-12-18T10:09:52;102172.59;;;7.82;100.00
2268;BME280;11052;43.338;25.502;2022-12-18T10:12:26;102171.72;;;7.77;100.00
2268;BME280;11052;43.338;25.502;2022-12-18T10:15:00;102172.56;;;7.76;100.00
2268;BME280;11052;43.338;25.502;2022-12-18T10:17:34;102167.41;;;7.76;100.00
2268;BME280;11052;43.338;25.502;2022-12-18T10:20:12;102163.09;;;7.75;100.00
2268;BME280;11052;43.338;25.502;2022-12-18T10:22:50;102168.22;;;7.73;100.00
2268;BME280;11052;43.338;25.502;2022-12-18T10:25:23;102163.78;;;7.62;100.00
2268;BME280;11052;43.338;25.502;2022-12-18T10:27:54;102169.97;;;7.74;100.00
2268;BME280;11052;43.338;25.502;2022-12-18T10:30:24;102163.06;;;7.72;100.00
2268;BME280;11052;43.338;25.502;2022-12-18T10:32:52;102165.63;;;7.70;100.00
2268;BME280;11052;43.338;25.502;2022-12-18T10:35:22;102170.88;;;7.78;100.00
2268;BME280;11052;43.338;25.502;2022-12-18T10:38:22;102174.13;;;7.63;100.00
2268;BME280;11052;43.338;25.502;2022-12-18T10:40:53;102176.63;;;7.55;100.00
2268;BME280;11052;43.338;25.502;2022-12-18T10:43:23;102175.78;;;7.56;100.00
2268;BME280;11052;43.338;25.502;2022-12-18T10:48:52;102191.97;;;7.46;100.00
2268;BME280;11052;43.338;25.502;2022-12-18T10:51:21;102199.56;;;7.34;100.00
2268;BME280;11052;43.338;25.502;2022-12-18T10:53:53;102192.59;;;7.29;100.00
2268;BME280;11052;43.338;25.502;2022-12-18T10:56:24;102195.13;;;7.26;100.00
2268;BME280;11052;43.338;25.502;2022-12-18T10:58:57;102189.81;;;7.13;100.00
2268;BME280;11052;43.338;25.502;2022-12-18T11:01:24;102195.91;;;7.20;100.00
2268;BME280;11052;43.338;25.502;2022-12-18T11:04:00;102196.84;;;7.25;100.00
2268;BME280;11052;43.338;25.502;2022-12-18T11:06:28;102200.97;;;7.14;100.00
2268;BME280;11052;43.338;25.502;2022-12-18T11:09:00;102210.59;;;7.24;100.00
2268;BME280;11052;43.338;25.502;2022-12-18T11:11:29;102203.88;;;7.35;100.00
2268;BME280;11052;43.338;25.502;2022-12-18T11:14:01;102217.56;;;7.31;100.00
2268;BME280;11052;43.338;25.502;2022-12-18T11:16:32;102213.34;;;7.36;100.00
2268;BME280;11052;43.338;25.502;2022-12-18T11:19:17;102215.06;;;7.36;100.00
2268;BME280;11052;43.338;25.502;2022-12-18T11:21:46;102207.31;;;7.36;100.00
2268;BME280;11052;43.338;25.502;2022-12-18T11:24:24;102216.84;;;7.40;100.00
2268;BME280;11052;43.338;25.502;2022-12-18T11:26:55;102218.53;;;7.39;100.00
2268;BME280;11052;43.338;25.502;2022-12-18T11:29:29;102220.19;;;7.34;100.00
2268;BME280;11052;43.338;25.502;2022-12-18T11:32:20;102228.78;;;7.33;100.00
2268;BME280;11052;43.338;25.502;2022-12-18T11:34:52;102222.16;;;7.52;100.00
2268;BME280;11052;43.338;25.502;2022-12-18T11:37:23;102215.97;;;7.39;100.00
2268;BME280;11052;43.338;25.502;2022-12-18T11:39:54;102228.00;;;7.39;100.00
2268;BME280;11052;43.338;25.502;2022-12-18T11:42:30;102225.53;;;7.46;100.00
2268;BME280;11052;43.338;25.502;2022-12-18T11:45:02;102221.91;;;7.34;100.00
2268;BME280;11052;43.338;25.502;2022-12-18T11:47:38;102227.06;;;7.34;100.00
2268;BME280;11052;43.338;25.502;2022-12-18T11:50:17;102229.56;;;7.28;100.00
2268;BME280;11052;43.338;25.502;2022-12-18T11:52:45;102223.66;;;7.36;100.00
2268;BME280;11052;43.338;25.502;2022-12-18T11:55:13;102224.56;;;7.38;100.00
2268;BME280;11052;43.338;25.502;2022-12-18T11:57:48;102222.53;;;7.17;100.00
2268;BME280;11052;43.338;25.502;2022-12-18T12:00:19;102221.78;;;7.26;100.00
2268;BME280;11052;43.338;25.502;2022-12-18T12:03:02;102226.16;;;7.30;100.00
2268;BME280;11052;43.338;25.502;2022-12-18T12:05:44;102217.69;;;7.39;100.00
2268;BME280;11052;43.338;25.502;2022-12-18T12:08:20;102224.41;;;7.29;100.00
2268;BME280;11052;43.338;25.502;2022-12-18T12:10:58;102230.50;;;7.33;100.00
2268;BME280;11052;43.338;25.502;2022-12-18T12:13:42;102226.91;;;7.23;100.00
2268;BME280;11052;43.338;25.502;2022-12-18T12:16:17;102229.47;;;7.23;100.00
2268;BME280;11052;43.338;25.502;2022-12-18T12:19:01;102234.78;;;7.32;100.00
2268;BME280;11052;43.338;25.502;2022-12-18T12:21:38;102235.53;;;7.25;100.00
2268;BME280;11052;43.338;25.502;2022-12-18T12:24:19;102239.81;;;7.23;100.00
2268;BME280;11052;43.338;25.502;2022-12-18T12:26:58;102235.41;;;7.17;100.00
2268;BME280;11052;43.338;25.502;2022-12-18T12:29:42;102238.16;;;7.28;100.00
2268;BME280;11052;43.338;25.502;2022-12-18T12:32:31;102231.34;;;7.33;100.00
2268;BME280;11052;43.338;25.502;2022-12-18T12:35:10;102230.56;;;7.37;100.00
2268;BME280;11052;43.338;25.502;2022-12-18T12:37:49;102230.53;;;7.36;100.00
2268;BME280;11052;43.338;25.502;2022-12-18T12:40:26;102234.81;;;7.35;100.00
2268;BME280;11052;43.338;25.502;2022-12-18T12:42:55;102245.25;;;7.43;100.00
2268;BME280;11052;43.338;25.502;2022-12-18T12:45:44;102240.84;;;7.36;100.00
2268;BME280;11052;43.338;25.502;2022-12-18T12:48:19;102238.22;;;7.31;100.00
2268;BME280;11052;43.338;25.502;2022-12-18T12:50:49;102234.56;;;7.17;100.00
2268;BME280;11052;43.338;25.502;2022-12-18T12:53:23;102240.56;;;7.16;100.00
2268;BME280;11052;43.338;25.502;2022-12-18T12:55:53;102244.78;;;7.11;100.00
2268;BME280;11052;43.338;25.502;2022-12-18T12:58:27;102252.44;;;7.06;100.00
2268;BME280;11052;43.338;25.502;2022-12-18T13:01:07;102255.06;;;7.09;100.00
2268;BME280;11052;43.338;25.502;2022-12-18T13:03:43;102261.84;;;7.04;100.00
2268;BME280;11052;43.338;25.502;2022-12-18T13:06:18;102266.16;;;7.04;100.00
2268;BME280;11052;43.338;25.502;2022-12-18T13:08:57;102273.00;;;7.03;100.00
2268;BME280;11052;43.338;25.502;2022-12-18T13:11:35;102275.44;;;6.91;100.00